Time;durP1;ratioP1;P1;durP2;ratioP2;P2;SDS_P1;SDS_P2;PMS_P1;PMS_P2;Temp;Humidity;BMP_temperature;BMP_pressure;BME280_temperature;BME280_humidity;BME280_pressure;Samples;Min_cycle;Max_cycle;Signal;HPM_P1;HPM_P2
2022/08/05 00:00:25;;;;;;;;;;;;;;;18.86;100.00;99337.28;1672289;85;20100;-75
2022/08/05 00:03:05;;;;;;;;;;;;;;;18.87;100.00;99347.22;1652548;86;20096;-75
2022/08/05 00:05:32;;;;;;;;;;;;;;;18.85;100.00;99348.19;1673103;85;21180;-75
2022/08/05 00:08:00;;;;;;;;;;;;;;;18.85;100.00;99350.97;1652112;86;20125;-75
2022/08/05 00:10:28;;;;;;;;;;;;;;;18.83;100.00;99355.52;1673674;86;20471;-75
2022/08/05 00:12:57;;;;;;;;;;;;;;;18.82;100.00;99348.35;1670480;85;20460;-75
2022/08/05 00:15:33;;;;;;;;;;;;;;;18.81;100.00;99348.14;1672238;86;20140;-75
2022/08/05 00:18:00;;;;;;;;;;;;;;;18.79;100.00;99349.10;1621661;87;20552;-75
2022/08/05 00:20:30;;;;;;;;;;;;;;;18.78;100.00;99348.30;1673158;86;20088;-75
2022/08/05 00:23:00;;;;;;;;;;;;;;;18.76;100.00;99347.88;1670509;85;20447;-75
2022/08/05 00:25:28;;;;;;;;;;;;;;;18.76;100.00;99347.07;1673321;86;20393;-75
2022/08/05 00:27:55;;;;;;;;;;;;;;;18.75;100.00;99348.25;1672584;85;20438;-75
2022/08/05 00:30:24;;;;;;;;;;;;;;;18.73;100.00;99346.43;1673543;86;21494;-75
2022/08/05 00:32:51;;;;;;;;;;;;;;;18.70;100.00;99347.18;1672745;85;20415;-75
2022/08/05 00:35:22;;;;;;;;;;;;;;;18.68;100.00;99352.31;1621533;87;20091;-75
2022/08/05 00:37:50;;;;;;;;;;;;;;;18.66;100.00;99354.66;1673341;86;20638;-75
2022/08/05 00:40:22;;;;;;;;;;;;;;;18.63;100.00;99356.22;1681779;83;20088;-75
2022/08/05 00:42:55;;;;;;;;;;;;;;;18.64;100.00;99350.87;1652423;86;20096;-75
2022/08/05 00:45:27;;;;;;;;;;;;;;;18.65;100.00;99341.94;1672821;85;20089;-75
2022/08/05 00:47:56;;;;;;;;;;;;;;;18.63;100.00;99342.91;1677832;84;20176;-74
2022/08/05 00:50:38;;;;;;;;;;;;;;;18.58;100.00;99341.21;1673320;86;20116;-75
2022/08/05 00:52:55;;;;;;;;;;;;;;;18.51;100.00;99343.08;1669957;85;20096;-75
2022/08/05 00:55:28;;;;;;;;;;;;;;;18.46;100.00;99346.42;1652557;86;20675;-75
2022/08/05 00:57:55;;;;;;;;;;;;;;;18.42;100.00;99337.22;1653246;85;20097;-75
2022/08/05 01:00:25;;;;;;;;;;;;;;;18.41;100.00;99339.78;1673512;86;20137;-75
2022/08/05 01:02:57;;;;;;;;;;;;;;;18.40;100.00;99340.16;1672844;85;20619;-75
2022/08/05 01:05:25;;;;;;;;;;;;;;;18.41;100.00;99337.01;1676348;85;20126;-75
2022/08/05 01:07:55;;;;;;;;;;;;;;;18.39;100.00;99342.14;1672849;85;21236;-75
2022/08/05 01:10:28;;;;;;;;;;;;;;;18.37;100.00;99340.91;1667306;85;20096;-75
2022/08/05 01:13:07;;;;;;;;;;;;;;;18.34;100.00;99338.28;1652473;86;20431;-75
2022/08/05 01:15:34;;;;;;;;;;;;;;;18.32;100.00;99340.63;1652707;86;20101;-75
2022/08/05 01:18:17;;;;;;;;;;;;;;;18.37;100.00;99343.69;1801323;79;20146;-75
2022/08/05 01:21:06;;;;;;;;;;;;;;;18.33;100.00;99342.82;1760121;81;20116;-75
2022/08/05 01:23:48;;;;;;;;;;;;;;;18.31;100.00;99354.31;1760928;81;21209;-75
2022/08/05 01:26:25;;;;;;;;;;;;;;;18.31;100.00;99350.73;1741809;81;20100;-75
2022/08/05 01:29:03;;;;;;;;;;;;;;;18.29;100.00;99346.94;1748146;81;20092;-75
2022/08/05 01:31:46;;;;;;;;;;;;;;;18.29;100.00;99348.32;1740300;81;20082;-75
2022/08/05 01:34:15;;;;;;;;;;;;;;;18.26;100.00;99344.90;1735834;82;20083;-76
2022/08/05 01:36:46;;;;;;;;;;;;;;;18.27;100.00;99338.16;1712519;83;20410;-75
2022/08/05 01:39:12;;;;;;;;;;;;;;;18.27;100.00;99328.44;1730771;83;20083;-76
2022/08/05 01:41:42;;;;;;;;;;;;;;;18.27;100.00;99334.59;1684463;83;20160;-75
2022/08/05 01:44:09;;;;;;;;;;;;;;;18.29;100.00;99333.62;1730805;83;20142;-75
2022/08/05 01:46:41;;;;;;;;;;;;;;;18.30;100.00;99328.28;1730885;83;20449;-75
2022/08/05 01:49:14;;;;;;;;;;;;;;;18.32;100.00;99325.94;1730817;83;21160;-75
2022/08/05 01:51:43;;;;;;;;;;;;;;;18.31;100.00;99326.52;1730872;83;20273;-75
2022/08/05 01:54:12;;;;;;;;;;;;;;;18.32;100.00;99318.98;1730118;82;20111;-75
2022/08/05 01:56:40;;;;;;;;;;;;;;;18.32;100.00;99323.95;1730032;82;20119;-75
2022/08/05 01:59:17;;;;;;;;;;;;;;;18.31;100.00;99322.36;1712469;83;20083;-75
2022/08/05 02:01:44;;;;;;;;;;;;;;;18.31;100.00;99319.58;1703110;81;20474;-75
2022/08/05 02:04:17;;;;;;;;;;;;;;;18.29;100.00;99323.91;1763198;81;20080;-75
2022/08/05 02:06:43;;;;;;;;;;;;;;;18.26;100.00;99318.50;1736521;81;20415;-75
2022/08/05 02:09:11;;;;;;;;;;;;;;;18.23;100.00;99316.47;1736931;81;20443;-75
2022/08/05 02:11:43;;;;;;;;;;;;;;;18.20;100.00;99317.21;1764362;81;20088;-75
2022/08/05 02:14:16;;;;;;;;;;;;;;;18.17;100.00;99329.66;1701236;81;20101;-75
2022/08/05 02:16:52;;;;;;;;;;;;;;;18.17;100.00;99330.45;1732570;82;20093;-75
2022/08/05 02:19:40;;;;;;;;;;;;;;;18.16;100.00;99337.19;1723787;82;20089;-75
2022/08/05 02:22:08;;;;;;;;;;;;;;;18.15;100.00;99333.61;1752496;82;20187;-75
2022/08/05 02:24:43;;;;;;;;;;;;;;;18.17;100.00;99332.44;1723251;82;20427;-75
2022/08/05 02:27:16;;;;;;;;;;;;;;;18.15;100.00;99340.55;1752678;82;21188;-75
2022/08/05 02:29:45;;;;;;;;;;;;;;;18.13;100.00;99338.73;1723369;82;20412;-75
2022/08/05 02:32:16;;;;;;;;;;;;;;;18.10;100.00;99346.41;1752619;82;20092;-75
2022/08/05 02:34:49;;;;;;;;;;;;;;;18.09;100.00;99344.01;1752692;82;20097;-75
2022/08/05 02:37:18;;;;;;;;;;;;;;;18.07;100.00;99338.83;1751189;82;20089;-76
2022/08/05 02:39:44;;;;;;;;;;;;;;;18.06;100.00;99344.75;1734469;82;20420;-76
2022/08/05 02:42:13;;;;;;;;;;;;;;;18.05;100.00;99343.14;1752094;82;20072;-76
2022/08/05 02:44:44;;;;;;;;;;;;;;;18.01;100.00;99341.69;1752507;82;20080;-76
2022/08/05 02:47:26;;;;;;;;;;;;;;;17.99;100.00;99331.54;1752703;82;20116;-75
2022/08/05 02:49:41;;;;;;;;;;;;;;;17.98;100.00;99333.30;1746123;82;20073;-76
2022/08/05 02:52:13;;;;;;;;;;;;;;;17.96;100.00;99327.31;1723233;82;21126;-76
2022/08/05 02:54:44;;;;;;;;;;;;;;;17.98;100.00;99334.69;1751776;82;20088;-76
2022/08/05 02:57:17;;;;;;;;;;;;;;;17.99;100.00;99336.29;1752561;82;20156;-75
2022/08/05 02:59:50;;;;;;;;;;;;;;;18.00;100.00;99328.98;1751997;82;20108;-75
2022/08/05 03:02:23;;;;;;;;;;;;;;;18.01;100.00;99336.14;1760248;80;20444;-76
2022/08/05 03:04:54;;;;;;;;;;;;;;;18.05;100.00;99344.53;1780862;80;21744;-76
2022/08/05 03:07:26;;;;;;;;;;;;;;;18.04;100.00;99343.73;1752038;82;20069;-76
2022/08/05 03:09:56;;;;;;;;;;;;;;;18.06;100.00;99341.38;1751831;82;20092;-76
2022/08/05 03:12:41;;;;;;;;;;;;;;;18.11;100.00;99348.61;1752674;82;20093;-76
2022/08/05 03:15:40;;;;;;;;;;;;;;;18.21;100.00;99347.98;1751222;82;20080;-76
2022/08/05 03:17:46;;;;;;;;;;;;;;;18.33;100.00;99337.27;1744450;81;21109;-76
2022/08/05 03:20:14;;;;;;;;;;;;;;;18.43;100.00;99349.14;1755091;81;20121;-76
2022/08/05 03:22:42;;;;;;;;;;;;;;;18.45;100.00;99351.77;1753929;81;20420;-75
2022/08/05 03:25:13;;;;;;;;;;;;;;;18.47;100.00;99359.73;1730827;81;20080;-76
2022/08/05 03:27:44;;;;;;;;;;;;;;;18.48;100.00;99350.98;1758394;81;20148;-76
2022/08/05 03:30:18;;;;;;;;;;;;;;;18.53;100.00;99351.27;1730393;81;20108;-75
2022/08/05 03:32:44;;;;;;;;;;;;;;;18.51;100.00;99358.37;1756595;81;20108;-75
2022/08/05 03:35:14;;;;;;;;;;;;;;;18.44;100.00;99361.28;1757776;81;20085;-75
2022/08/05 03:37:44;;;;;;;;;;;;;;;18.38;100.00;99353.04;1757828;81;20104;-75
2022/08/05 03:40:18;;;;;;;;;;;;;;;18.35;100.00;99357.15;1757474;81;20080;-75
2022/08/05 03:42:43;;;;;;;;;;;;;;;18.33;100.00;99353.94;1756895;80;21235;-72
2022/08/05 03:45:15;;;;;;;;;;;;;;;18.31;100.00;99348.75;1752302;81;20108;-75
2022/08/05 03:47:46;;;;;;;;;;;;;;;18.32;100.00;99355.92;1754483;81;20476;-76
2022/08/05 03:50:14;;;;;;;;;;;;;;;18.32;100.00;99354.53;1731059;81;20474;-77
2022/08/05 03:52:47;;;;;;;;;;;;;;;18.34;100.00;99358.33;1758005;81;20080;-77
2022/08/05 03:55:25;;;;;;;;;;;;;;;18.38;100.00;99361.97;1723485;81;21040;-77
2022/08/05 03:57:55;;;;;;;;;;;;;;;18.44;100.00;99355.72;1755912;81;20420;-77
2022/08/05 04:00:28;;;;;;;;;;;;;;;18.51;100.00;99357.78;1730461;81;20120;-78
2022/08/05 04:02:54;;;;;;;;;;;;;;;18.52;100.00;99355.80;1761640;80;20093;-73
2022/08/05 04:05:30;;;;;;;;;;;;;;;18.53;100.00;99361.58;1718376;81;20133;-83
2022/08/05 04:08:06;;;;;;;;;;;;;;;18.54;100.00;99358.42;1757711;81;21114;-82
2022/08/05 04:10:33;;;;;;;;;;;;;;;18.55;100.00;99359.23;1757457;81;20084;-84
2022/08/05 04:12:59;;;;;;;;;;;;;;;18.57;100.00;99356.29;1757850;81;20092;-84
2022/08/05 04:15:26;;;;;;;;;;;;;;;18.59;100.00;99358.11;1757834;81;20092;-83
2022/08/05 04:17:53;;;;;;;;;;;;;;;18.62;100.00;99356.59;1757633;80;20084;-73
2022/08/05 04:20:21;;;;;;;;;;;;;;;18.66;100.00;99351.89;1755431;81;21782;-71
2022/08/05 04:22:47;;;;;;;;;;;;;;;18.67;100.00;99358.46;1752240;82;20101;-74
2022/08/05 04:25:14;;;;;;;;;;;;;;;18.69;100.00;99357.50;1752391;82;20093;-76
2022/08/05 04:27:40;;;;;;;;;;;;;;;18.70;100.00;99349.38;1752536;82;20112;-76
2022/08/05 04:30:07;;;;;;;;;;;;;;;18.71;100.00;99351.56;1752432;82;20428;-77
2022/08/05 04:32:34;;;;;;;;;;;;;;;18.74;100.00;99353.00;1752149;80;21171;-77
2022/08/05 04:35:00;;;;;;;;;;;;;;;18.78;100.00;99348.89;1752472;82;20130;-77
2022/08/05 04:37:27;;;;;;;;;;;;;;;18.83;100.00;99354.13;1752429;82;20112;-77
2022/08/05 04:39:54;;;;;;;;;;;;;;;18.88;100.00;99351.61;1752315;82;20113;-78
2022/08/05 04:42:21;;;;;;;;;;;;;;;18.93;100.00;99354.06;1723475;82;20444;-79
2022/08/05 04:44:47;;;;;;;;;;;;;;;18.97;100.00;99350.16;1752439;82;21117;-80
2022/08/05 04:47:13;;;;;;;;;;;;;;;18.97;100.00;99347.38;1752214;82;20080;-79
2022/08/05 04:49:40;;;;;;;;;;;;;;;19.00;100.00;99346.63;1723303;82;20080;-76
2022/08/05 04:52:06;;;;;;;;;;;;;;;19.04;100.00;99341.91;1752404;82;20443;-76
2022/08/05 04:54:33;;;;;;;;;;;;;;;19.10;100.00;99341.77;1752643;82;20104;-76
2022/08/05 04:56:59;;;;;;;;;;;;;;;19.15;100.00;99347.59;1753269;80;20739;-78
2022/08/05 04:59:25;;;;;;;;;;;;;;;19.16;100.00;99344.22;1754932;80;20128;-82
2022/08/05 05:01:52;;;;;;;;;;;;;;;19.17;100.00;99356.95;1755073;80;20092;-78
2022/08/05 05:04:18;;;;;;;;;;;;;;;19.16;100.00;99362.30;1761854;80;20114;-77
2022/08/05 05:06:45;;;;;;;;;;;;;;;19.14;100.00;99362.09;1760869;80;20098;-74
2022/08/05 05:09:12;;;;;;;;;;;;;;;19.15;100.00;99367.06;1763978;80;21097;-75
2022/08/05 05:11:38;;;;;;;;;;;;;;;19.16;100.00;99366.48;1753404;80;20104;-75
2022/08/05 05:14:05;;;;;;;;;;;;;;;19.20;100.00;99367.32;1781950;80;20165;-76
2022/08/05 05:16:32;;;;;;;;;;;;;;;19.20;100.00;99365.34;1782096;80;20129;-72
2022/08/05 05:18:58;;;;;;;;;;;;;;;19.17;100.00;99368.08;1782562;80;20117;-75
2022/08/05 05:21:24;;;;;;;;;;;;;;;19.13;100.00;99373.01;1787115;80;21094;-78
2022/08/05 05:23:51;;;;;;;;;;;;;;;19.13;100.00;99375.79;1789027;80;20078;-81
2022/08/05 05:26:17;;;;;;;;;;;;;;;19.16;100.00;99366.48;1789307;80;20142;-85
2022/08/05 05:28:44;;;;;;;;;;;;;;;19.19;100.00;99373.48;1788821;80;20078;-83
2022/08/05 05:31:11;;;;;;;;;;;;;;;19.21;100.00;99362.77;1787178;80;20982;-76
2022/08/05 05:33:38;;;;;;;;;;;;;;;19.24;100.00;99361.22;1789270;80;21051;-79
2022/08/05 05:36:05;;;;;;;;;;;;;;;19.27;100.00;99363.24;1789034;80;20410;-81
2022/08/05 05:38:31;;;;;;;;;;;;;;;19.31;100.00;99355.73;1788980;80;20070;-75
2022/08/05 05:40:58;;;;;;;;;;;;;;;19.39;100.00;99361.02;1760377;80;20172;-76
2022/08/05 05:43:25;;;;;;;;;;;;;;;19.52;100.00;99361.60;1788885;80;20149;-79
2022/08/05 05:45:53;;;;;;;;;;;;;;;19.72;100.00;99361.61;1760841;80;21152;-79
2022/08/05 05:48:19;;;;;;;;;;;;;;;19.91;100.00;99354.23;1789309;80;20134;-75
2022/08/05 05:50:46;;;;;;;;;;;;;;;20.02;100.00;99356.55;1789012;80;20094;-76
2022/08/05 05:53:14;;;;;;;;;;;;;;;20.08;100.00;99357.80;1788838;80;20070;-76
2022/08/05 05:55:40;;;;;;;;;;;;;;;20.17;100.00;99359.67;1789218;80;20421;-76
2022/08/05 05:58:07;;;;;;;;;;;;;;;20.24;100.00;99359.70;1788842;80;21099;-75
2022/08/05 06:00:33;;;;;;;;;;;;;;;20.31;100.00;99361.75;1788925;80;20161;-75
2022/08/05 06:03:02;;;;;;;;;;;;;;;20.37;100.00;99370.77;1789018;80;20090;-75
2022/08/05 06:05:28;;;;;;;;;;;;;;;20.41;100.00;99370.24;1788892;80;20078;-72
2022/08/05 06:07:55;;;;;;;;;;;;;;;20.44;100.00;99370.86;1789231;80;20294;-71
2022/08/05 06:10:21;;;;;;;;;;;;;;;20.50;100.00;99371.31;1789081;80;21224;-72
2022/08/05 06:12:48;;;;;;;;;;;;;;;20.59;100.00;99368.99;1789131;80;20468;-69
2022/08/05 06:15:14;;;;;;;;;;;;;;;20.72;100.00;99370.88;1789233;79;20114;-73
2022/08/05 06:17:40;;;;;;;;;;;;;;;20.91;100.00;99372.56;1789159;80;20161;-75
2022/08/05 06:20:08;;;;;;;;;;;;;;;21.09;100.00;99365.91;1788886;80;20090;-73
2022/08/05 06:22:34;;;;;;;;;;;;;;;21.31;100.00;99361.86;1783245;80;20632;-71
2022/08/05 06:25:01;;;;;;;;;;;;;;;21.48;100.00;99370.08;1779003;80;20123;-71
2022/08/05 06:27:28;;;;;;;;;;;;;;;21.56;100.00;99357.74;1768152;80;20430;-70
2022/08/05 06:29:55;;;;;;;;;;;;;;;21.64;100.00;99367.15;1754301;80;20104;-77
2022/08/05 06:32:21;;;;;;;;;;;;;;;21.66;100.00;99369.55;1752645;82;20405;-70
2022/08/05 06:34:47;;;;;;;;;;;;;;;21.64;100.00;99364.36;1751052;82;21121;-73
2022/08/05 06:37:15;;;;;;;;;;;;;;;21.60;100.00;99357.95;1752258;82;20487;-72
2022/08/05 06:39:42;;;;;;;;;;;;;;;21.58;100.00;99356.16;1752607;82;20157;-73
2022/08/05 06:42:09;;;;;;;;;;;;;;;21.56;100.00;99356.34;1752594;82;20444;-73
2022/08/05 06:44:35;;;;;;;;;;;;;;;21.58;100.00;99354.76;1752487;82;20140;-73
2022/08/05 06:47:02;;;;;;;;;;;;;;;21.66;100.00;99362.56;1752541;82;21018;-73
2022/08/05 06:49:28;;;;;;;;;;;;;;;21.79;100.00;99363.00;1752435;82;20093;-72
2022/08/05 06:51:55;;;;;;;;;;;;;;;21.90;100.00;99369.42;1752289;82;20213;-75
2022/08/05 06:54:22;;;;;;;;;;;;;;;21.99;100.00;99369.20;1752121;80;20089;-71
2022/08/05 06:56:48;;;;;;;;;;;;;;;22.11;100.00;99368.66;1751953;82;20101;-75
2022/08/05 06:59:15;;;;;;;;;;;;;;;22.23;100.00;99371.07;1752314;82;21243;-72
2022/08/05 07:01:42;;;;;;;;;;;;;;;22.32;100.00;99377.07;1752259;82;20105;-69
2022/08/05 07:04:08;;;;;;;;;;;;;;;22.37;100.00;99378.88;1763270;80;20110;-70
2022/08/05 07:06:35;;;;;;;;;;;;;;;22.26;100.00;99379.46;1758585;80;20140;-71
2022/08/05 07:09:02;;;;;;;;;;;;;;;22.09;100.00;99385.83;1752239;82;20593;-70
2022/08/05 07:11:29;;;;;;;;;;;;;;;21.94;100.00;99388.39;1752257;82;21517;-70
2022/08/05 07:16:51;;;;;;;;;;;;;;;21.68;100.00;99392.30;1752005;82;20136;-71
2022/08/05 07:19:18;;;;;;;;;;;;;;;21.56;100.00;99388.47;1752023;82;20116;-73
2022/08/05 07:21:48;;;;;;;;;;;;;;;21.43;100.00;99389.41;1752229;81;20140;-69
2022/08/05 07:24:18;;;;;;;;;;;;;;;21.32;100.00;99388.59;1752067;82;21951;-69
2022/08/05 07:26:44;;;;;;;;;;;;;;;21.24;100.00;99386.95;1752167;82;20195;-72
2022/08/05 07:29:13;;;;;;;;;;;;;;;21.17;100.00;99392.46;1752128;82;20440;-70
2022/08/05 07:31:44;;;;;;;;;;;;;;;21.13;100.00;99397.22;1752416;82;20460;-70
2022/08/05 07:34:12;;;;;;;;;;;;;;;21.04;100.00;99390.00;1721328;80;20127;-70
2022/08/05 07:36:40;;;;;;;;;;;;;;;21.01;100.00;99392.17;1770883;80;21127;-69
2022/08/05 07:39:14;;;;;;;;;;;;;;;21.01;100.00;99396.36;1764947;80;20117;-69
2022/08/05 07:41:43;;;;;;;;;;;;;;;20.99;100.00;99393.16;1750456;82;20089;-70
2022/08/05 07:44:12;;;;;;;;;;;;;;;20.98;100.00;99391.55;1752123;81;20147;-69
2022/08/05 07:46:43;;;;;;;;;;;;;;;20.95;100.00;99388.14;1750889;82;20125;-71
2022/08/05 07:49:12;;;;;;;;;;;;;;;21.00;100.00;99393.36;1752169;80;21207;-71
2022/08/05 07:51:41;;;;;;;;;;;;;;;21.04;100.00;99406.73;1752104;82;20507;-71
2022/08/05 07:54:08;;;;;;;;;;;;;;;21.02;100.00;99408.32;1752417;82;20069;-70
2022/08/05 07:56:42;;;;;;;;;;;;;;;20.95;100.00;99406.28;1752057;82;20145;-73
2022/08/05 07:59:13;;;;;;;;;;;;;;;20.94;100.00;99403.28;1722111;82;20074;-70
2022/08/05 08:01:50;;;;;;;;;;;;;;;20.97;100.00;99416.45;1750829;82;21154;-73
2022/08/05 08:04:11;;;;;;;;;;;;;;;21.01;100.00;99420.08;1748859;82;20331;-73
2022/08/05 08:06:48;;;;;;;;;;;;;;;21.02;100.00;99414.70;1758199;80;20443;-74
2022/08/05 08:09:12;;;;;;;;;;;;;;;20.97;100.00;99420.64;1750747;80;20081;-73
2022/08/05 08:11:38;;;;;;;;;;;;;;;20.91;100.00;99419.41;1751878;82;20179;-73
2022/08/05 08:14:07;;;;;;;;;;;;;;;20.83;100.00;99421.94;1752144;80;21403;-73
2022/08/05 08:16:42;;;;;;;;;;;;;;;20.79;100.00;99416.16;1751883;82;20271;-75
2022/08/05 08:19:08;;;;;;;;;;;;;;;20.85;100.00;99413.18;1750618;80;20104;-74
2022/08/05 08:21:36;;;;;;;;;;;;;;;20.92;100.00;99407.06;1752237;81;20120;-76
2022/08/05 08:24:07;;;;;;;;;;;;;;;21.05;100.00;99416.71;1752135;82;20157;-74
2022/08/05 08:26:35;;;;;;;;;;;;;;;21.16;100.00;99411.20;1722823;82;21959;-73
2022/08/05 08:29:01;;;;;;;;;;;;;;;21.28;100.00;99416.48;1752405;82;20305;-74
2022/08/05 08:31:31;;;;;;;;;;;;;;;21.39;100.00;99419.30;1752271;82;20145;-75
2022/08/05 08:33:57;;;;;;;;;;;;;;;21.45;100.00;99412.16;1752136;82;20121;-75
2022/08/05 08:36:24;;;;;;;;;;;;;;;21.49;100.00;99407.39;1752548;82;20112;-72
2022/08/05 08:38:54;;;;;;;;;;;;;;;21.50;100.00;99410.98;1723037;82;20752;-74
2022/08/05 08:41:22;;;;;;;;;;;;;;;21.47;100.00;99414.55;1722358;82;20135;-75
2022/08/05 08:43:52;;;;;;;;;;;;;;;21.42;100.00;99407.35;1751952;82;20073;-76
2022/08/05 08:46:25;;;;;;;;;;;;;;;21.38;100.00;99402.34;1722243;82;20089;-75
2022/08/05 08:48:54;;;;;;;;;;;;;;;21.42;100.00;99412.94;1751553;82;20436;-74
2022/08/05 08:51:29;;;;;;;;;;;;;;;21.50;100.00;99408.98;1760490;80;21823;-75
2022/08/05 08:53:56;;;;;;;;;;;;;;;21.64;100.00;99418.03;1759394;80;20136;-76
2022/08/05 08:56:27;;;;;;;;;;;;;;;21.75;100.00;99416.08;1751728;82;20084;-76
2022/08/05 08:59:01;;;;;;;;;;;;;;;21.77;100.00;99418.47;1722535;82;20101;-71
2022/08/05 09:01:31;;;;;;;;;;;;;;;21.83;100.00;99421.09;1751872;82;20088;-73
2022/08/05 09:03:59;;;;;;;;;;;;;;;21.89;100.00;99416.13;1752072;82;21178;-72
2022/08/05 09:06:28;;;;;;;;;;;;;;;21.89;100.00;99409.73;1751824;80;20254;-73
2022/08/05 09:08:55;;;;;;;;;;;;;;;21.94;100.00;99414.94;1751999;80;20510;-72
2022/08/05 09:11:22;;;;;;;;;;;;;;;21.99;100.00;99413.13;1752188;82;20092;-72
2022/08/05 09:13:48;;;;;;;;;;;;;;;22.12;100.00;99412.98;1751870;82;20197;-72
2022/08/05 09:16:15;;;;;;;;;;;;;;;22.27;100.00;99416.61;1752207;82;21085;-79
2022/08/05 09:18:43;;;;;;;;;;;;;;;22.41;100.00;99426.42;1751617;82;20088;-77
2022/08/05 09:21:09;;;;;;;;;;;;;;;22.53;100.00;99425.23;1751748;81;20479;-74
2022/08/05 09:23:37;;;;;;;;;;;;;;;22.54;99.38;99422.01;1753689;80;20129;-74
2022/08/05 09:26:10;;;;;;;;;;;;;;;22.47;97.41;99425.42;1771391;80;20410;-74
2022/08/05 09:28:39;;;;;;;;;;;;;;;22.33;98.11;99434.00;1782429;79;21161;-73
2022/08/05 09:31:08;;;;;;;;;;;;;;;22.22;98.80;99431.78;1783023;80;20166;-74
2022/08/05 09:33:54;;;;;;;;;;;;;;;22.19;100.00;99426.98;1782520;80;20113;-74
2022/08/05 09:36:20;;;;;;;;;;;;;;;22.19;100.00;99431.18;1783079;79;20083;-73
2022/08/05 09:38:58;;;;;;;;;;;;;;;22.25;100.00;99428.20;1782893;80;20145;-74
2022/08/05 09:41:25;;;;;;;;;;;;;;;22.36;100.00;99433.80;1781826;80;21075;-74
2022/08/05 09:43:51;;;;;;;;;;;;;;;22.49;100.00;99437.81;1769586;80;20079;-74
2022/08/05 09:46:27;;;;;;;;;;;;;;;22.58;98.69;99434.00;1766101;80;20092;-74
2022/08/05 09:48:57;;;;;;;;;;;;;;;22.67;97.38;99433.60;1752213;82;20097;-83
2022/08/05 09:51:34;;;;;;;;;;;;;;;22.75;98.30;99436.60;1752531;82;20215;-74
2022/08/05 09:54:00;;;;;;;;;;;;;;;22.88;97.07;99426.62;1751850;82;21234;-74
2022/08/05 09:56:29;;;;;;;;;;;;;;;23.11;96.73;99433.17;1754177;80;20086;-75
2022/08/05 09:58:59;;;;;;;;;;;;;;;23.37;94.32;99433.31;1767073;80;20499;-75
2022/08/05 10:01:26;;;;;;;;;;;;;;;23.55;93.30;99433.30;1763492;80;20869;-71
2022/08/05 10:03:58;;;;;;;;;;;;;;;23.73;93.60;99430.39;1753709;82;20507;-73
2022/08/05 10:06:28;;;;;;;;;;;;;;;23.89;91.57;99428.72;1756599;80;21143;-73
2022/08/05 10:08:56;;;;;;;;;;;;;;;24.03;89.53;99430.65;1751936;80;20468;-72
2022/08/05 10:11:22;;;;;;;;;;;;;;;24.08;87.85;99433.62;1752157;82;20448;-72
2022/08/05 10:13:51;;;;;;;;;;;;;;;24.00;87.05;99435.07;1756459;80;20133;-72
2022/08/05 10:16:33;;;;;;;;;;;;;;;23.96;87.08;99436.30;1761938;80;20090;-71
2022/08/05 10:19:00;;;;;;;;;;;;;;;23.98;88.03;99433.28;1776264;80;21275;-71
2022/08/05 10:21:27;;;;;;;;;;;;;;;23.96;87.63;99433.49;1783176;80;20093;-75
2022/08/05 10:23:54;;;;;;;;;;;;;;;23.93;87.99;99435.71;1777329;80;20443;-72
2022/08/05 10:26:20;;;;;;;;;;;;;;;23.90;87.39;99433.72;1783169;80;20090;-72
2022/08/05 10:28:47;;;;;;;;;;;;;;;23.91;87.90;99430.51;1731682;82;20208;-72
2022/08/05 10:31:14;;;;;;;;;;;;;;;23.93;86.84;99428.09;1751292;82;21118;-75
2022/08/05 10:33:40;;;;;;;;;;;;;;;23.98;87.06;99432.48;1752470;82;20081;-74
2022/08/05 10:36:09;;;;;;;;;;;;;;;24.07;86.06;99428.63;1723857;82;20081;-74
2022/08/05 10:38:35;;;;;;;;;;;;;;;24.13;86.50;99434.60;1751338;80;20482;-72
2022/08/05 10:41:24;;;;;;;;;;;;;;;24.17;86.88;99427.77;1722924;82;20069;-80
2022/08/05 10:44:00;;;;;;;;;;;;;;;24.17;85.96;99434.78;1751431;80;21140;-75
2022/08/05 10:46:49;;;;;;;;;;;;;;;24.12;86.83;99438.02;1764626;80;20079;-76
2022/08/05 10:49:12;;;;;;;;;;;;;;;24.13;86.11;99436.80;1723262;82;20179;-75
2022/08/05 10:51:43;;;;;;;;;;;;;;;24.15;85.65;99435.79;1756482;80;20449;-75
2022/08/05 10:54:11;;;;;;;;;;;;;;;24.15;85.40;99434.39;1783322;80;20182;-76
2022/08/05 10:56:48;;;;;;;;;;;;;;;24.14;84.96;99434.20;1752082;80;20134;-76
2022/08/05 10:59:26;;;;;;;;;;;;;;;24.14;85.18;99428.59;1782946;80;20117;-75
2022/08/05 11:02:07;;;;;;;;;;;;;;;24.12;85.01;99431.00;1782237;79;20219;-75
2022/08/05 11:04:44;;;;;;;;;;;;;;;24.07;86.30;99435.64;1752641;79;20189;-74
2022/08/05 11:07:14;;;;;;;;;;;;;;;24.07;86.22;99434.23;1783171;80;20136;-75
2022/08/05 11:09:48;;;;;;;;;;;;;;;24.06;85.37;99435.44;1782786;80;21114;-73
2022/08/05 11:12:40;;;;;;;;;;;;;;;24.09;86.11;99435.23;1751558;80;20094;-75
2022/08/05 11:15:24;;;;;;;;;;;;;;;24.17;85.16;99437.58;1773685;79;20137;-76
2022/08/05 11:17:54;;;;;;;;;;;;;;;24.23;86.08;99428.13;1770261;80;20121;-75
2022/08/05 11:20:43;;;;;;;;;;;;;;;24.35;85.70;99436.87;1762134;80;20136;-77
2022/08/05 11:23:36;;;;;;;;;;;;;;;24.52;85.29;99438.55;1771213;80;21808;-73
2022/08/05 11:26:08;;;;;;;;;;;;;;;24.63;84.77;99446.30;1751803;82;20265;-79
2022/08/05 11:28:37;;;;;;;;;;;;;;;24.65;84.20;99442.47;1752021;82;20133;-81
2022/08/05 11:31:11;;;;;;;;;;;;;;;24.60;83.24;99448.52;1752229;82;20420;-79
2022/08/05 11:33:53;;;;;;;;;;;;;;;24.50;83.52;99448.79;1751074;82;20438;-80
2022/08/05 11:36:47;;;;;;;;;;;;;;;24.40;82.78;99448.86;1723027;82;20117;-75
2022/08/05 11:39:15;;;;;;;;;;;;;;;24.29;83.45;99451.73;1721864;82;20096;-84
2022/08/05 11:41:55;;;;;;;;;;;;;;;24.21;83.76;99446.77;1747835;80;20081;-79
2022/08/05 11:44:22;;;;;;;;;;;;;;;24.15;84.58;99444.20;1751885;82;20092;-77
2022/08/05 11:46:58;;;;;;;;;;;;;;;24.10;85.16;99436.82;1742957;82;20080;-75
2022/08/05 11:49:24;;;;;;;;;;;;;;;24.08;85.64;99435.03;1751105;80;21149;-72
2022/08/05 11:51:52;;;;;;;;;;;;;;;24.04;85.52;99446.27;1769074;79;20136;-74
2022/08/05 11:54:24;;;;;;;;;;;;;;;23.97;86.05;99433.69;1759937;80;20107;-73
2022/08/05 11:57:02;;;;;;;;;;;;;;;23.89;87.04;99434.33;1770102;80;20446;-81
2022/08/05 11:59:26;;;;;;;;;;;;;;;23.89;86.95;99444.73;1781221;80;20206;-82
2022/08/05 12:02:01;;;;;;;;;;;;;;;23.90;86.31;99438.73;1782558;80;21859;-85
2022/08/05 12:04:30;;;;;;;;;;;;;;;23.90;86.89;99438.73;1782845;80;20432;-79
2022/08/05 12:06:58;;;;;;;;;;;;;;;23.97;87.33;99439.30;1781621;80;20125;-81
2022/08/05 12:09:28;;;;;;;;;;;;;;;23.99;86.00;99441.89;1782865;80;20163;-73
2022/08/05 12:11:55;;;;;;;;;;;;;;;24.01;87.29;99434.47;1753530;80;20150;-76
2022/08/05 12:14:22;;;;;;;;;;;;;;;24.07;86.17;99434.84;1783058;80;21119;-76
2022/08/05 12:16:49;;;;;;;;;;;;;;;24.06;85.92;99437.45;1782742;80;20090;-76
2022/08/05 12:19:16;;;;;;;;;;;;;;;24.09;85.81;99440.23;1782763;80;20141;-75
2022/08/05 12:21:49;;;;;;;;;;;;;;;24.25;86.82;99436.94;1782738;80;20118;-73
2022/08/05 12:24:17;;;;;;;;;;;;;;;24.43;86.88;99436.81;1782827;80;20114;-78
2022/08/05 12:26:51;;;;;;;;;;;;;;;24.57;84.64;99438.13;1783166;80;21250;-79
2022/08/05 12:29:22;;;;;;;;;;;;;;;24.67;84.58;99431.63;1782633;80;20118;-79
2022/08/05 12:31:51;;;;;;;;;;;;;;;24.74;84.46;99439.98;1782988;80;20138;-78
2022/08/05 12:34:18;;;;;;;;;;;;;;;24.78;84.41;99430.94;1782662;80;20675;-78
2022/08/05 12:36:45;;;;;;;;;;;;;;;24.88;84.26;99432.82;1773181;80;20140;-80
2022/08/05 12:39:12;;;;;;;;;;;;;;;24.98;82.85;99431.16;1763221;80;21054;-73
2022/08/05 12:41:39;;;;;;;;;;;;;;;25.10;82.18;99434.86;1751643;82;20116;-75
2022/08/05 12:44:08;;;;;;;;;;;;;;;25.17;81.23;99429.17;1763412;80;20884;-74
2022/08/05 12:46:42;;;;;;;;;;;;;;;25.25;81.22;99429.89;1751759;81;20176;-78
2022/08/05 12:49:14;;;;;;;;;;;;;;;25.42;79.75;99433.09;1751692;80;20120;-80
2022/08/05 12:51:49;;;;;;;;;;;;;;;25.58;77.98;99433.91;1751499;82;21072;-80
2022/08/05 12:54:29;;;;;;;;;;;;;;;25.81;77.33;99427.64;1751890;82;20144;-79
2022/08/05 12:56:58;;;;;;;;;;;;;;;25.94;76.57;99428.67;1724296;82;20120;-80